createdAt,value
2023-02-16T00:00:19.504Z,17.90
2023-02-16T00:02:48.207Z,17.17
2023-02-16T00:05:26.303Z,17.10
2023-02-16T00:07:55.664Z,18.93
2023-02-16T00:10:24.140Z,18.43
2023-02-16T00:13:11.900Z,19.00
2023-02-16T00:15:40.862Z,19.20
2023-02-16T00:18:18.466Z,20.13
2023-02-16T00:20:47.225Z,18.60
2023-02-16T00:23:15.545Z,19.43
2023-02-16T00:25:43.987Z,18.87
2023-02-16T00:28:19.601Z,19.50
2023-02-16T00:30:50.189Z,19.67
2023-02-16T00:33:21.373Z,18.20
2023-02-16T00:35:50.095Z,18.37
2023-02-16T00:38:18.344Z,18.87
2023-02-16T00:40:46.741Z,20.20
2023-02-16T00:43:26.911Z,18.97
2023-02-16T00:45:56.360Z,19.07
2023-02-16T00:48:25.280Z,19.57
2023-02-16T00:50:53.508Z,18.37
2023-02-16T00:53:21.735Z,18.37
2023-02-16T00:55:50.060Z,17.90
2023-02-16T00:58:26.182Z,19.17
2023-02-16T01:00:59.743Z,18.93
2023-02-16T01:03:30.537Z,18.10
2023-02-16T01:06:12.743Z,17.13
2023-02-16T01:08:58.377Z,18.93
2023-02-16T01:11:27.039Z,18.43
2023-02-16T01:13:58.161Z,17.83
2023-02-16T01:16:28.890Z,19.00
2023-02-16T01:18:57.144Z,18.27
2023-02-16T01:21:25.344Z,19.63
2023-02-16T01:23:53.577Z,17.80
2023-02-16T01:26:22.590Z,18.67
2023-02-16T01:28:50.863Z,18.67
2023-02-16T01:31:20.624Z,16.43
2023-02-16T01:33:50.662Z,18.83
2023-02-16T01:36:25.231Z,17.73
2023-02-16T01:38:53.514Z,17.30
2023-02-16T01:41:36.702Z,16.57
2023-02-16T01:44:07.187Z,16.20
2023-02-16T01:46:49.273Z,17.10
2023-02-16T01:49:20.916Z,16.97
2023-02-16T01:51:57.976Z,17.00
2023-02-16T01:54:42.316Z,16.77
2023-02-16T01:57:24.644Z,16.73
2023-02-16T02:00:17.403Z,15.33
2023-02-16T02:02:49.814Z,16.30
2023-02-16T02:05:37.070Z,16.33
2023-02-16T02:08:16.319Z,16.30
2023-02-16T02:10:58.849Z,16.17
2023-02-16T02:13:34.309Z,15.93
2023-02-16T02:16:03.263Z,15.50
2023-02-16T02:18:33.012Z,15.63
2023-02-16T02:22:03.358Z,15.80
2023-02-16T02:25:02.686Z,14.60
2023-02-16T02:27:34.743Z,13.67
2023-02-16T02:30:30.177Z,15.23
2023-02-16T02:33:25.196Z,14.30
2023-02-16T02:36:07.375Z,14.27
2023-02-16T02:38:49.250Z,13.53
2023-02-16T02:41:45.874Z,15.13
2023-02-16T02:44:19.036Z,16.23
2023-02-16T02:46:48.236Z,14.43
2023-02-16T02:49:17.172Z,14.13
2023-02-16T02:51:45.493Z,14.27
2023-02-16T02:54:35.888Z,14.43
2023-02-16T02:57:27.522Z,13.03
2023-02-16T03:00:20.155Z,12.77
2023-02-16T03:02:52.596Z,13.30
2023-02-16T03:05:23.471Z,14.80
2023-02-16T03:07:57.433Z,15.23
2023-02-16T03:11:00.723Z,16.57
2023-02-16T03:13:34.843Z,14.60
2023-02-16T03:16:09.531Z,13.23
2023-02-16T03:18:58.412Z,13.13
2023-02-16T03:21:45.819Z,12.10
2023-02-16T03:24:38.252Z,12.83
2023-02-16T03:27:24.818Z,12.87
2023-02-16T03:29:54.225Z,13.00
2023-02-16T03:32:24.215Z,13.63
2023-02-16T03:34:52.580Z,12.70
2023-02-16T03:37:21.238Z,13.40
2023-02-16T03:40:08.156Z,14.23
2023-02-16T03:42:36.477Z,13.17
2023-02-16T03:45:05.150Z,12.50
2023-02-16T03:47:34.778Z,12.57
2023-02-16T03:50:03.009Z,13.00
2023-02-16T03:52:31.263Z,13.50
2023-02-16T03:55:00.533Z,14.10
2023-02-16T03:57:28.841Z,12.80
2023-02-16T03:59:59.236Z,14.20
2023-02-16T04:02:28.860Z,13.90
2023-02-16T04:04:58.568Z,12.93
2023-02-16T04:07:26.819Z,13.57
2023-02-16T04:09:55.057Z,13.23
2023-02-16T04:12:37.551Z,14.20
2023-02-16T04:15:08.618Z,13.63
2023-02-16T04:17:37.072Z,14.30
2023-02-16T04:20:11.937Z,13.57
2023-02-16T04:22:40.358Z,13.47
2023-02-16T04:25:09.661Z,14.43
2023-02-16T04:27:39.007Z,14.80
2023-02-16T04:30:10.156Z,13.77
2023-02-16T04:32:38.500Z,13.80
2023-02-16T04:35:08.993Z,14.60
2023-02-16T04:37:37.605Z,14.93
2023-02-16T04:40:08.607Z,15.53
2023-02-16T04:42:36.869Z,13.90
2023-02-16T04:45:05.535Z,13.90
2023-02-16T04:47:33.789Z,14.53
2023-02-16T04:50:02.123Z,14.27
2023-02-16T04:52:32.203Z,15.07
2023-02-16T04:55:00.481Z,14.23
2023-02-16T04:57:28.890Z,14.40
2023-02-16T04:59:57.177Z,14.30
2023-02-16T05:02:25.421Z,14.03
2023-02-16T05:04:53.706Z,14.53
2023-02-16T05:07:21.964Z,13.93
2023-02-16T05:09:51.785Z,14.60
2023-02-16T05:12:37.595Z,12.87
2023-02-16T05:15:07.455Z,13.33
2023-02-16T05:17:35.671Z,11.93
2023-02-16T05:20:04.043Z,12.47
2023-02-16T05:22:33.585Z,11.67
2023-02-16T05:25:03.281Z,11.17
2023-02-16T05:27:32.203Z,11.50
2023-02-16T05:30:00.943Z,12.37
2023-02-16T05:32:29.410Z,11.57
2023-02-16T05:34:57.602Z,12.07
2023-02-16T05:37:25.880Z,10.60
2023-02-16T05:39:54.207Z,12.47
2023-02-16T05:42:23.824Z,12.23
2023-02-16T05:44:52.023Z,12.57
2023-02-16T05:47:20.230Z,12.33
2023-02-16T05:49:48.476Z,11.27
2023-02-16T05:52:16.758Z,12.50
2023-02-16T05:54:45.064Z,11.67
2023-02-16T05:57:13.308Z,13.03
2023-02-16T05:59:42.899Z,11.33
2023-02-16T06:02:11.414Z,10.17
2023-02-16T06:04:39.729Z,10.67
2023-02-16T06:07:08.022Z,12.47
2023-02-16T06:09:36.314Z,11.53
2023-02-16T06:12:05.125Z,10.77
2023-02-16T06:14:33.406Z,10.27
2023-02-16T06:17:03.775Z,11.20
2023-02-16T06:19:32.465Z,11.00
2023-02-16T06:22:00.737Z,11.90
2023-02-16T06:24:29.652Z,10.17
2023-02-16T06:26:58.028Z,10.70
2023-02-16T06:29:26.637Z,11.40
2023-02-16T06:31:54.983Z,11.47
2023-02-16T06:34:24.803Z,11.90
2023-02-16T06:36:53.054Z,11.17
2023-02-16T06:39:21.449Z,11.70
2023-02-16T06:41:49.722Z,12.00
2023-02-16T06:44:18.514Z,11.73
2023-02-16T06:46:48.715Z,11.10
2023-02-16T06:49:19.083Z,11.97
2023-02-16T06:51:49.606Z,11.83
2023-02-16T06:54:19.254Z,11.53
2023-02-16T06:56:47.584Z,10.83
2023-02-16T06:59:16.060Z,11.13
2023-02-16T07:01:45.459Z,11.10
2023-02-16T07:04:14.190Z,10.83
2023-02-16T07:06:42.858Z,12.37
2023-02-16T07:09:13.046Z,11.77
2023-02-16T07:11:41.518Z,11.07
2023-02-16T07:14:09.741Z,12.67
2023-02-16T07:16:38.271Z,10.83
2023-02-16T07:19:06.994Z,11.00
2023-02-16T07:21:35.609Z,10.90
2023-02-16T07:24:04.186Z,11.33
2023-02-16T07:26:33.863Z,10.97
2023-02-16T07:29:02.132Z,10.90
2023-02-16T07:31:30.439Z,10.37
2023-02-16T07:33:58.751Z,10.47
2023-02-16T07:36:27.073Z,11.33
2023-02-16T07:38:55.725Z,9.90
2023-02-16T07:41:23.952Z,10.00
2023-02-16T07:43:53.527Z,10.10
2023-02-16T07:46:21.799Z,9.93
2023-02-16T07:48:50.226Z,10.07
2023-02-16T07:51:23.706Z,11.17
2023-02-16T07:53:52.213Z,10.67
2023-02-16T07:56:21.932Z,10.57
2023-02-16T07:58:54.029Z,10.77
2023-02-16T08:01:23.154Z,11.03
2023-02-16T08:03:52.134Z,10.23
2023-02-16T08:06:21.355Z,10.80
2023-02-16T08:08:50.011Z,13.47
2023-02-16T08:11:20.484Z,12.30
2023-02-16T08:13:49.327Z,12.83
2023-02-16T08:16:21.350Z,12.77
2023-02-16T08:18:51.309Z,11.93
2023-02-16T08:21:23.673Z,11.30
2023-02-16T08:23:57.386Z,10.97
2023-02-16T08:26:28.756Z,12.57
2023-02-16T08:28:59.579Z,13.20
2023-02-16T08:31:32.283Z,18.30
2023-02-16T08:34:03.049Z,14.33
2023-02-16T08:36:34.562Z,15.97
2023-02-16T08:39:05.143Z,20.73
2023-02-16T08:41:36.186Z,15.07
2023-02-16T08:44:05.799Z,13.37
2023-02-16T08:46:37.402Z,12.77
2023-02-16T08:49:06.198Z,12.53
2023-02-16T08:51:38.040Z,12.30
2023-02-16T08:54:08.574Z,13.53
2023-02-16T08:56:37.972Z,12.67
2023-02-16T08:59:06.196Z,12.23
2023-02-16T09:01:35.960Z,13.87
2023-02-16T09:04:04.240Z,14.07
2023-02-16T09:06:33.101Z,16.23
2023-02-16T09:09:01.421Z,14.10
2023-02-16T09:11:29.694Z,14.03
2023-02-16T09:13:58.459Z,13.03
2023-02-16T09:16:29.228Z,13.47
2023-02-16T09:18:58.895Z,14.53
2023-02-16T09:21:27.422Z,14.53
2023-02-16T09:23:58.251Z,14.07
2023-02-16T09:26:29.259Z,15.07
2023-02-16T09:28:59.118Z,14.60
2023-02-16T09:31:31.144Z,13.37
2023-02-16T09:34:04.781Z,15.80
2023-02-16T09:36:33.779Z,15.20
2023-02-16T09:39:02.461Z,14.87
2023-02-16T09:41:44.703Z,15.33
2023-02-16T09:44:39.315Z,14.70
2023-02-16T09:47:22.387Z,14.50
2023-02-16T09:49:54.029Z,13.93
2023-02-16T09:52:31.194Z,14.40
2023-02-16T09:55:01.442Z,14.47
2023-02-16T09:57:43.585Z,14.17
2023-02-16T10:00:28.096Z,14.23
2023-02-16T10:03:03.998Z,14.77
2023-02-16T10:05:46.395Z,14.77
2023-02-16T10:08:18.108Z,14.97
2023-02-16T10:10:52.023Z,15.07
2023-02-16T10:13:32.052Z,14.60
2023-02-16T10:16:02.960Z,14.00
2023-02-16T10:18:35.296Z,15.87
2023-02-16T10:21:15.334Z,16.37
2023-02-16T10:23:50.402Z,17.83
2023-02-16T10:26:24.550Z,16.17
2023-02-16T10:28:58.816Z,16.50
2023-02-16T10:31:35.404Z,16.70
2023-02-16T10:34:21.274Z,16.57
2023-02-16T10:37:22.264Z,18.20
2023-02-16T10:40:04.159Z,17.30
2023-02-16T10:42:41.886Z,17.23
2023-02-16T10:45:27.139Z,16.80
2023-02-16T10:47:55.935Z,16.93
2023-02-16T10:50:29.570Z,16.87
2023-02-16T10:53:03.047Z,17.70
2023-02-16T10:55:31.333Z,17.77
2023-02-16T10:58:02.639Z,18.10
2023-02-16T11:00:48.349Z,17.73
2023-02-16T11:03:17.484Z,16.97
2023-02-16T11:05:45.768Z,16.37
2023-02-16T11:08:15.427Z,17.37
2023-02-16T11:10:50.500Z,16.73
2023-02-16T11:13:29.291Z,17.10
2023-02-16T11:16:01.828Z,16.93
2023-02-16T11:18:37.878Z,16.87
2023-02-16T11:21:08.044Z,17.87
2023-02-16T11:23:40.501Z,18.57
2023-02-16T11:26:24.131Z,18.10
2023-02-16T11:28:53.746Z,17.23
2023-02-16T11:31:30.264Z,17.80
2023-02-16T11:34:05.482Z,17.13
2023-02-16T11:36:37.648Z,17.63
2023-02-16T11:39:16.655Z,17.57
2023-02-16T11:41:47.152Z,17.67
2023-02-16T11:44:29.063Z,17.03
2023-02-16T11:46:58.800Z,18.33
2023-02-16T11:49:34.469Z,17.33
2023-02-16T11:52:22.279Z,17.70
2023-02-16T11:54:53.944Z,18.37
2023-02-16T11:57:28.546Z,17.63
2023-02-16T11:59:58.734Z,17.23
2023-02-16T12:03:10.858Z,20.17
2023-02-16T12:05:58.290Z,18.40
2023-02-16T12:08:42.995Z,18.60
2023-02-16T12:11:29.274Z,18.33
2023-02-16T12:14:14.345Z,20.13
2023-02-16T12:16:51.967Z,18.37
2023-02-16T12:19:34.949Z,18.17
2023-02-16T12:22:17.157Z,18.87
2023-02-16T12:24:57.918Z,18.93
2023-02-16T12:27:35.342Z,18.07
2023-02-16T12:30:19.948Z,19.27
2023-02-16T12:33:06.355Z,18.50
2023-02-16T12:36:05.477Z,18.40
2023-02-16T12:38:47.904Z,19.57
2023-02-16T12:41:29.332Z,16.50
2023-02-16T12:44:03.890Z,17.67
2023-02-16T12:46:37.723Z,18.87
2023-02-16T12:49:15.093Z,18.73
2023-02-16T12:51:49.903Z,19.10
2023-02-16T12:54:25.283Z,17.73
2023-02-16T12:57:01.853Z,19.23
2023-02-16T12:59:40.251Z,18.30
2023-02-16T13:02:19.859Z,18.60
2023-02-16T13:04:55.789Z,17.57
2023-02-16T13:07:30.798Z,18.50
2023-02-16T13:10:05.845Z,17.80
2023-02-16T13:12:40.009Z,17.30
2023-02-16T13:15:15.675Z,17.03
2023-02-16T13:17:49.524Z,18.70
2023-02-16T13:20:20.736Z,17.77
2023-02-16T13:23:30.422Z,17.50
2023-02-16T13:26:19.015Z,17.47
2023-02-16T13:29:22.844Z,16.67
2023-02-16T13:32:09.208Z,17.43
2023-02-16T13:35:23.189Z,17.83
2023-02-16T13:38:06.630Z,18.57
2023-02-16T13:41:06.643Z,17.47
2023-02-16T13:43:37.708Z,18.20
2023-02-16T13:46:14.889Z,18.07
2023-02-16T13:48:52.933Z,18.33
2023-02-16T13:51:25.168Z,18.23
2023-02-16T13:53:57.910Z,18.13
2023-02-16T13:56:36.464Z,17.93
2023-02-16T13:59:55.915Z,19.60
2023-02-16T14:03:00.380Z,18.83
2023-02-16T14:05:41.668Z,20.77
2023-02-16T14:08:25.547Z,19.10
2023-02-16T14:11:10.969Z,20.60
2023-02-16T14:13:51.340Z,18.93
2023-02-16T14:16:34.930Z,19.40
2023-02-16T14:19:21.135Z,19.83
2023-02-16T14:21:52.073Z,19.27
2023-02-16T14:24:35.725Z,20.33
2023-02-16T14:27:06.321Z,20.43
2023-02-16T14:29:39.473Z,20.40
2023-02-16T14:32:24.384Z,20.10
2023-02-16T14:34:57.962Z,19.87
2023-02-16T14:37:37.519Z,24.77
2023-02-16T14:40:19.593Z,23.10
2023-02-16T14:42:58.231Z,20.83
2023-02-16T14:46:29.026Z,20.07
2023-02-16T14:49:48.678Z,21.83
2023-02-16T14:53:07.064Z,21.53
2023-02-16T14:56:18.393Z,19.83
2023-02-16T14:58:56.416Z,22.67
2023-02-16T15:01:26.220Z,21.00
2023-02-16T15:03:58.098Z,21.20
2023-02-16T15:06:34.549Z,20.57
2023-02-16T15:09:15.978Z,20.97
2023-02-16T15:12:08.927Z,21.17
2023-02-16T15:14:45.202Z,21.40
2023-02-16T15:17:28.073Z,22.27
2023-02-16T15:20:05.356Z,22.63
2023-02-16T15:22:33.798Z,22.73
2023-02-16T15:25:08.755Z,21.40
2023-02-16T15:27:37.234Z,22.43
2023-02-16T15:30:10.448Z,22.93
2023-02-16T15:32:39.026Z,22.43
2023-02-16T15:35:24.621Z,22.13
2023-02-16T15:38:03.146Z,23.17
2023-02-16T15:40:35.184Z,23.33
2023-02-16T15:43:20.985Z,23.47
2023-02-16T15:45:52.987Z,22.77
2023-02-16T15:48:29.321Z,23.37
2023-02-16T15:51:03.373Z,25.73
2023-02-16T15:53:38.257Z,23.17
2023-02-16T15:56:29.542Z,24.57
2023-02-16T15:59:00.915Z,25.47
2023-02-16T16:01:34.069Z,24.87
2023-02-16T16:04:06.987Z,23.37
2023-02-16T16:06:38.794Z,24.63
2023-02-16T16:09:08.637Z,24.80
2023-02-16T16:11:38.959Z,26.37
2023-02-16T16:14:08.315Z,26.07
2023-02-16T16:16:36.893Z,26.67
2023-02-16T16:19:16.828Z,26.93
2023-02-16T16:21:54.413Z,26.17
2023-02-16T16:24:35.055Z,24.67
2023-02-16T16:27:08.560Z,24.50
2023-02-16T16:29:42.051Z,25.30
2023-02-16T16:32:21.330Z,24.90
2023-02-16T16:34:50.761Z,24.30
2023-02-16T16:37:29.437Z,24.77
2023-02-16T16:40:05.711Z,24.80
2023-02-16T16:42:39.192Z,25.33
2023-02-16T16:45:35.713Z,22.30
2023-02-16T16:48:11.249Z,24.33
2023-02-16T16:50:40.688Z,24.27
2023-02-16T16:53:45.712Z,25.00
2023-02-16T16:56:15.254Z,24.80
2023-02-16T16:58:45.004Z,25.77
2023-02-16T17:01:14.474Z,25.90
2023-02-16T17:03:43.230Z,25.57
2023-02-16T17:06:11.953Z,24.43
2023-02-16T17:08:41.356Z,26.30
2023-02-16T17:11:13.646Z,23.50
2023-02-16T17:13:42.064Z,24.60
2023-02-16T17:16:18.102Z,23.40
2023-02-16T17:18:46.533Z,23.33
2023-02-16T17:21:15.703Z,25.00
2023-02-16T17:23:52.510Z,24.83
2023-02-16T17:26:22.214Z,25.47
2023-02-16T17:28:51.086Z,23.47
2023-02-16T17:31:20.923Z,26.03
2023-02-16T17:33:49.330Z,24.93
2023-02-16T17:36:18.358Z,25.60
2023-02-16T17:38:46.877Z,25.07
2023-02-16T17:41:22.795Z,23.13
2023-02-16T17:43:51.574Z,24.10
2023-02-16T17:46:24.069Z,23.20
2023-02-16T17:48:55.139Z,24.30
2023-02-16T17:51:26.170Z,24.50
2023-02-16T17:53:55.656Z,22.50
2023-02-16T17:56:25.413Z,23.53
2023-02-16T17:58:53.728Z,22.30
2023-02-16T18:01:23.969Z,22.90
2023-02-16T18:03:53.081Z,22.70
2023-02-16T18:06:28.105Z,24.97
2023-02-16T18:08:57.175Z,24.73
2023-02-16T18:11:25.538Z,24.63
2023-02-16T18:13:53.986Z,23.43
2023-02-16T18:16:28.534Z,24.17
2023-02-16T18:18:58.133Z,27.00
2023-02-16T18:21:26.449Z,23.17
2023-02-16T18:23:54.725Z,22.90
2023-02-16T18:26:23.790Z,23.90
2023-02-16T18:28:52.036Z,23.33
2023-02-16T18:31:20.624Z,23.47
2023-02-16T18:33:50.321Z,23.57
2023-02-16T18:36:18.792Z,24.87
2023-02-16T18:38:47.052Z,23.80
2023-02-16T18:41:15.471Z,22.83
2023-02-16T18:43:43.744Z,24.03
2023-02-16T18:46:12.240Z,23.40
2023-02-16T18:48:40.660Z,25.17
2023-02-16T18:51:12.312Z,21.83
2023-02-16T18:53:41.010Z,19.77
2023-02-16T18:56:12.465Z,22.30
2023-02-16T18:58:40.932Z,21.87
2023-02-16T19:01:16.159Z,22.03
2023-02-16T19:03:44.574Z,20.90
2023-02-16T19:06:14.221Z,20.30
2023-02-16T19:08:42.519Z,20.20
2023-02-16T19:11:10.826Z,21.70
2023-02-16T19:13:39.066Z,20.53
2023-02-16T19:16:08.319Z,23.60
2023-02-16T19:18:36.901Z,22.03
2023-02-16T19:21:07.876Z,22.27
2023-02-16T19:23:38.419Z,21.30
2023-02-16T19:26:08.566Z,20.27
2023-02-16T19:28:36.788Z,24.67
2023-02-16T19:31:08.126Z,23.77
2023-02-16T19:33:36.977Z,21.83
2023-02-16T19:36:08.480Z,24.87
2023-02-16T19:38:38.634Z,22.50
2023-02-16T19:41:12.064Z,21.53
2023-02-16T19:43:41.099Z,21.00
2023-02-16T19:46:10.371Z,20.90
2023-02-16T19:48:39.722Z,20.77
2023-02-16T19:51:09.777Z,20.63
2023-02-16T19:53:40.691Z,20.57
2023-02-16T19:56:11.272Z,20.80
2023-02-16T19:58:40.062Z,19.37
2023-02-16T20:01:10.255Z,20.67
2023-02-16T20:03:38.672Z,19.37
2023-02-16T20:06:15.828Z,18.60
2023-02-16T20:08:46.266Z,19.27
2023-02-16T20:11:15.597Z,20.73
2023-02-16T20:13:44.328Z,21.33
2023-02-16T20:16:15.189Z,19.67
2023-02-16T20:18:44.278Z,19.60
2023-02-16T20:21:15.036Z,20.13
2023-02-16T20:23:45.835Z,20.03
2023-02-16T20:26:17.860Z,18.63
2023-02-16T20:28:47.137Z,19.20
2023-02-16T20:31:19.253Z,20.20
2023-02-16T20:33:47.879Z,20.00
2023-02-16T20:36:17.165Z,18.17
2023-02-16T20:38:47.304Z,18.67
2023-02-16T20:41:15.930Z,18.07
2023-02-16T20:43:44.907Z,21.27
2023-02-16T20:46:14.990Z,22.03
2023-02-16T20:48:43.249Z,20.80
2023-02-16T20:51:13.933Z,20.27
2023-02-16T20:53:42.244Z,18.17
2023-02-16T20:56:15.865Z,19.70
2023-02-16T20:58:46.640Z,19.47
2023-02-16T21:01:16.719Z,20.43
2023-02-16T21:03:45.296Z,19.70
2023-02-16T21:06:13.807Z,20.43
2023-02-16T21:08:42.153Z,24.10
2023-02-16T21:11:11.912Z,23.70
2023-02-16T21:13:41.893Z,24.03
2023-02-16T21:16:10.592Z,24.83
2023-02-16T21:18:40.608Z,24.53
2023-02-16T21:21:09.968Z,23.20
2023-02-16T21:23:38.388Z,21.83
2023-02-16T21:26:07.712Z,23.40
2023-02-16T21:28:37.675Z,21.13
2023-02-16T21:31:09.825Z,21.67
2023-02-16T21:33:39.002Z,21.40
2023-02-16T21:36:11.182Z,22.47
2023-02-16T21:38:41.974Z,22.00
2023-02-16T21:41:25.530Z,21.43
2023-02-16T21:43:59.611Z,21.97
2023-02-16T21:46:29.519Z,22.07
2023-02-16T21:48:57.523Z,21.83
2023-02-16T21:51:28.849Z,20.73
2023-02-16T21:53:58.214Z,23.37
2023-02-16T21:56:33.589Z,23.20
2023-02-16T21:59:03.665Z,21.30
2023-02-16T22:01:34.623Z,20.57
2023-02-16T22:04:03.904Z,21.27
2023-02-16T22:06:36.239Z,21.47
2023-02-16T22:09:08.750Z,20.53
2023-02-16T22:11:37.336Z,19.13
2023-02-16T22:14:07.651Z,19.07
2023-02-16T22:16:38.575Z,19.40
2023-02-16T22:19:10.300Z,19.00
2023-02-16T22:21:41.413Z,19.77
2023-02-16T22:24:12.545Z,19.03
2023-02-16T22:26:41.068Z,20.00
2023-02-16T22:29:11.538Z,19.00
2023-02-16T22:31:40.565Z,18.67
2023-02-16T22:34:13.425Z,18.47
2023-02-16T22:36:41.839Z,18.30
2023-02-16T22:39:13.745Z,19.43
2023-02-16T22:41:42.011Z,17.87
2023-02-16T22:44:12.479Z,17.83
2023-02-16T22:46:40.835Z,16.97
2023-02-16T22:49:10.891Z,17.97
2023-02-16T22:51:39.723Z,17.37
2023-02-16T22:54:08.368Z,17.30
2023-02-16T22:56:36.700Z,16.97
2023-02-16T22:59:05.010Z,17.47
2023-02-16T23:01:35.082Z,21.27
2023-02-16T23:04:03.455Z,19.67
2023-02-16T23:06:34.390Z,18.93
2023-02-16T23:09:06.766Z,17.90
2023-02-16T23:11:36.241Z,16.63
2023-02-16T23:14:04.898Z,17.70
2023-02-16T23:16:34.722Z,17.20
2023-02-16T23:19:03.016Z,17.33
2023-02-16T23:21:33.866Z,19.93
2023-02-16T23:24:02.302Z,18.57
2023-02-16T23:26:32.142Z,17.40
2023-02-16T23:29:02.627Z,17.63
2023-02-16T23:31:34.887Z,17.23
2023-02-16T23:34:03.630Z,18.13
2023-02-16T23:36:32.670Z,18.30
2023-02-16T23:39:01.736Z,17.10
2023-02-16T23:41:30.571Z,18.70
2023-02-16T23:44:00.946Z,17.07
2023-02-16T23:46:29.984Z,17.70
2023-02-16T23:48:59.633Z,17.57
2023-02-16T23:51:28.418Z,18.13
2023-02-16T23:53:56.715Z,18.50
2023-02-16T23:56:27.479Z,16.53
2023-02-16T23:58:59.670Z,16.83
